Nearby METAR Reports

This page may be slow to load as it queries the National Weather Service for data.

KBIS - Bismarck, North Dakota, USA
Distance from station: S 10mi, 15km
Updated: Mon, 16-Sep-2019 8:52pm CDT
Clear
Clear
 Wind from SE
Wind: SE 8 mph , 13 km/h
Temperature: 72°F , 22°C
Dew Point: 64°F , 18°C
Humidity: 78%
Barometer: 29.69 inHg , 1005.4 hPa
Clouds: Clear
Visibility: 10 miles , 16 km
2019/09/17 01:52 KBIS 170152Z 13007KT 10SM CLR 22/18 A2969 RMK AO2 SLP049 T02170183
KDIK - Dickinson, North Dakota, USA
Distance from station: W 95mi, 154km
Updated: Mon, 16-Sep-2019 8:56pm CDT
Clear
Clear
 Wind from ESE
Wind: ESE 10 mph , 17 km/h
Temperature: 75°F , 24°C
Dew Point: 63°F , 17°C
Humidity: 65%
Barometer: 29.65 inHg , 1004.1 hPa
Clouds: Clear
Visibility: 10 miles , 16 km
2019/09/17 01:56 KDIK 170156Z AUTO 12009KT 10SM CLR 24/17 A2965 RMK AO2 SLP026 T02390167
 
KISN - Williston, North Dakota, USA
Distance from station: NNW 2mi, 2km
Updated: Mon, 16-Sep-2019 8:52pm CDT
Clear
Clear
 Wind from ESE
Wind: ESE 10 mph , 17 km/h
Temperature: 79°F , 26°C
Dew Point: 64°F , 18°C
Humidity: 61%
Barometer: 29.60 inHg , 1002.4 hPa
Clouds: Clear
Visibility: 10 miles , 16 km
2019/09/17 01:52 KISN 170152Z AUTO 12009KT 10SM CLR 26/18 A2960 RMK AO2 SLP014 T02610178
KFAR - Fargo, North Dakota, USA
Distance from station: NNW 4mi, 7km
Updated: Mon, 16-Sep-2019 8:53pm CDT
Clear
Clear
 Wind from SSE
Wind: SSE 17 mph , 28 km/h, Gust: 29 mph , 46 km/h
Temperature: 79°F , 26°C
Dew Point: 72°F , 22°C
Humidity: 79%
Barometer: 29.78 inHg , 1008.5 hPa
Clouds: Clear
Visibility: 10 miles , 16 km
2019/09/17 01:53 KFAR 170153Z AUTO 15015G25KT 10SM CLR 26/22 A2978 RMK AO2 SLP080 T02610222 $
 
KGFK - Grand Forks, North Dakota, USA
Distance from station: NNW 76mi, 123km
Updated: Mon, 16-Sep-2019 8:53pm CDT
Partly cloudy
Partly cloudy
 Wind from S
Wind: S 15 mph , 24 km/h, Gust: 26 mph , 43 km/h
Temperature: 81°F , 27°C
Heat Index: 85°F , 29°C
Dew Point: 70°F , 21°C
Humidity: 70%
Barometer: 29.73 inHg , 1006.8 hPa
Clouds: Partly cloudy
Visibility: 10 miles , 16 km
Cloud details: Partly cloudy 25000 ft
2019/09/17 01:53 KGFK 170153Z 17013G23KT 10SM SCT250 27/21 A2973 RMK AO2 PK WND 18027/0118 SLP064 T02670211
KMOT - Minot, North Dakota, USA
Distance from station: E 109mi, 175km
Updated: Mon, 16-Sep-2019 8:54pm CDT
Clear
Clear
 Wind from ESE
Wind: ESE 7 mph , 11 km/h
Temperature: 75°F , 24°C
Dew Point: 64°F , 18°C
Humidity: 69%
Barometer: 29.65 inHg , 1004.1 hPa
Clouds: Clear
Visibility: 10 miles , 16 km
2019/09/17 01:54 KMOT 170154Z 12006KT 10SM CLR 24/18 A2965 RMK AO2 SLP035 T02390183